createdAt,value
2022-08-21T00:04:22.373Z,100930.87
2022-08-21T00:09:25.192Z,100931.91
2022-08-21T00:14:31.432Z,100928.66
2022-08-21T00:19:38.011Z,100925.73
2022-08-21T00:24:43.577Z,100914.40
2022-08-21T00:29:49.046Z,100914.61
2022-08-21T00:34:55.536Z,100926.13
2022-08-21T00:40:01.383Z,100921.19
2022-08-21T00:45:08.171Z,100922.33
2022-08-21T00:50:15.058Z,100922.69
2022-08-21T00:55:24.187Z,100926.48
2022-08-21T01:00:33.175Z,100929.12
2022-08-21T01:05:39.795Z,100930.61
2022-08-21T01:10:45.995Z,100929.05
2022-08-21T01:15:54.484Z,100928.91
2022-08-21T01:21:12.785Z,100934.83
2022-08-21T01:26:22.102Z,100931.75
2022-08-21T01:31:29.558Z,100931.19
2022-08-21T01:36:35.277Z,100928.47
2022-08-21T01:41:40.844Z,100926.75
2022-08-21T01:46:46.326Z,100927.61
2022-08-21T01:51:52.055Z,100920.68
2022-08-21T01:56:58.155Z,100916.13
2022-08-21T02:02:04.581Z,100915.05
2022-08-21T02:07:10.459Z,100918.70
2022-08-21T02:12:15.997Z,100914.77
2022-08-21T02:17:21.533Z,100914.63
2022-08-21T02:22:27.031Z,100912.91
2022-08-21T02:27:35.664Z,100915.84
2022-08-21T02:32:43.657Z,100913.90
2022-08-21T02:37:52.867Z,100913.27
2022-08-21T02:42:59.318Z,100903.36
2022-08-21T02:48:08.005Z,100902.14
2022-08-21T02:53:16.946Z,100893.14
2022-08-21T02:58:25.505Z,100890.57
2022-08-21T03:03:31.894Z,100893.78
2022-08-21T03:08:38.673Z,100889.92
2022-08-21T03:13:44.867Z,100895.06
2022-08-21T03:18:50.435Z,100884.84
2022-08-21T03:23:56.008Z,100882.55
2022-08-21T03:29:01.572Z,100879.48
2022-08-21T03:34:07.122Z,100884.55
2022-08-21T03:39:12.688Z,100890.70
2022-08-21T03:44:18.186Z,100889.46
2022-08-21T03:49:23.942Z,100897.91
2022-08-21T03:54:29.582Z,100897.47
2022-08-21T03:59:36.992Z,100896.38
2022-08-21T04:04:43.171Z,100894.80
2022-08-21T04:09:48.735Z,100896.66
2022-08-21T04:14:54.301Z,100894.95
2022-08-21T04:20:00.177Z,100901.77
2022-08-21T04:25:06.506Z,100900.83
2022-08-21T04:30:13.564Z,100908.33
2022-08-21T04:35:21.663Z,100917.91
2022-08-21T04:40:29.475Z,100915.50
2022-08-21T04:45:38.320Z,100909.45
2022-08-21T04:50:49.541Z,100916.14
2022-08-21T04:55:58.093Z,100915.10
2022-08-21T05:01:06.502Z,100918.63
2022-08-21T05:06:14.733Z,100917.08
2022-08-21T05:11:21.171Z,100923.50
2022-08-21T05:16:36.659Z,100915.69
2022-08-21T05:21:40.106Z,100918.22
2022-08-21T05:26:46.714Z,100919.20
2022-08-21T05:31:53.810Z,100915.86
2022-08-21T05:37:00.602Z,100916.36
2022-08-21T05:42:06.789Z,100914.14
2022-08-21T05:47:13.461Z,100911.61
2022-08-21T05:52:23.088Z,100921.16
2022-08-21T05:57:29.111Z,100923.53
2022-08-21T06:02:34.671Z,100924.34
2022-08-21T06:07:40.139Z,100926.91
2022-08-21T06:12:45.906Z,100930.75
2022-08-21T06:17:51.591Z,100935.92
2022-08-21T06:22:57.430Z,100936.27
2022-08-21T06:28:08.874Z,100941.85
2022-08-21T06:33:14.425Z,100946.19
2022-08-21T06:38:21.614Z,100939.42
2022-08-21T06:43:39.787Z,100936.27
2022-08-21T06:48:35.306Z,100937.12
2022-08-21T06:53:40.869Z,100939.95
2022-08-21T06:58:46.547Z,100942.95
2022-08-21T07:03:52.346Z,100948.84
2022-08-21T07:08:58.967Z,100947.77
2022-08-21T07:14:04.894Z,100954.41
2022-08-21T07:19:10.435Z,100951.06
2022-08-21T07:24:16.506Z,100952.06
2022-08-21T07:29:22.090Z,100949.56
2022-08-21T07:34:27.643Z,100949.70
2022-08-21T07:39:33.211Z,100949.27
2022-08-21T07:44:39.077Z,100948.95
2022-08-21T07:49:45.051Z,100953.61
2022-08-21T07:54:50.616Z,100958.81
2022-08-21T07:59:56.896Z,100953.48
2022-08-21T08:05:04.620Z,100954.38
2022-08-21T08:10:11.561Z,100948.94
2022-08-21T08:15:20.456Z,100944.33
2022-08-21T08:20:27.958Z,100947.09
2022-08-21T08:25:36.778Z,100949.22
2022-08-21T08:30:40.831Z,100947.09
2022-08-21T08:35:48.934Z,100959.39
2022-08-21T08:41:09.783Z,100958.98
2022-08-21T08:46:18.531Z,100964.23
2022-08-21T08:51:30.020Z,100959.23
2022-08-21T08:56:36.275Z,100968.50
2022-08-21T09:01:42.427Z,100956.70
2022-08-21T09:07:00.286Z,100962.86
2022-08-21T09:12:20.952Z,100967.02
2022-08-21T09:18:05.422Z,100962.82
2022-08-21T09:23:39.974Z,100968.73
2022-08-21T09:28:47.584Z,100968.33
2022-08-21T09:33:54.579Z,100964.14
2022-08-21T09:39:00.149Z,100971.77
2022-08-21T09:44:07.768Z,100967.62
2022-08-21T09:49:14.460Z,100977.84
2022-08-21T09:54:23.902Z,100978.83
2022-08-21T09:59:38.456Z,100977.30
2022-08-21T10:04:47.122Z,100982.58
2022-08-21T10:10:11.168Z,100984.27
2022-08-21T10:15:25.691Z,100974.41
2022-08-21T10:20:48.976Z,100977.48
2022-08-21T10:26:30.273Z,100984.31
2022-08-21T10:31:53.762Z,100980.09
2022-08-21T10:37:20.485Z,100985.23
2022-08-21T10:42:45.249Z,100988.19
2022-08-21T10:47:59.714Z,100983.41
2022-08-21T10:53:14.420Z,100988.19
2022-08-21T10:58:35.580Z,100992.59
2022-08-21T11:03:50.007Z,100993.61
2022-08-21T11:09:02.115Z,100985.91
2022-08-21T11:14:17.064Z,100993.95
2022-08-21T11:19:34.847Z,100987.45
2022-08-21T11:24:47.688Z,100992.28
2022-08-21T11:29:56.318Z,100995.02
2022-08-21T11:35:24.721Z,100992.30
2022-08-21T11:40:49.573Z,100987.18
2022-08-21T11:45:58.121Z,100997.24
2022-08-21T11:51:09.295Z,101000.66
2022-08-21T11:56:17.909Z,100991.44
2022-08-21T12:01:26.655Z,100994.86
2022-08-21T12:06:36.915Z,100989.91
2022-08-21T12:11:50.590Z,100997.05
2022-08-21T12:17:00.945Z,101000.81
2022-08-21T12:22:10.403Z,100994.44
2022-08-21T12:27:27.032Z,100993.75
2022-08-21T12:32:50.424Z,100994.61
2022-08-21T12:38:11.260Z,101004.47
2022-08-21T12:43:19.865Z,101001.27
2022-08-21T12:48:37.214Z,100999.57
2022-08-21T12:53:51.681Z,100994.95
2022-08-21T12:59:01.248Z,101002.48
2022-08-21T13:04:09.876Z,100999.22
2022-08-21T13:09:21.280Z,100993.59
2022-08-21T13:14:45.960Z,100990.09
2022-08-21T13:20:23.231Z,100987.67
2022-08-21T13:25:31.767Z,100986.61
2022-08-21T13:30:39.342Z,100988.20
2022-08-21T13:35:53.858Z,100990.04
2022-08-21T13:41:05.837Z,100988.50
2022-08-21T13:46:14.652Z,100984.57
2022-08-21T13:51:20.922Z,100995.89
2022-08-21T13:56:30.317Z,100992.44
2022-08-21T14:01:58.756Z,100996.92
2022-08-21T14:07:06.782Z,100993.48
2022-08-21T14:12:30.422Z,100994.84
2022-08-21T14:17:42.579Z,100999.63
2022-08-21T14:22:50.342Z,100995.72
2022-08-21T14:28:09.865Z,100999.47
2022-08-21T14:33:30.732Z,101009.05
2022-08-21T14:38:39.373Z,101014.34
2022-08-21T14:43:46.242Z,101006.30
2022-08-21T14:48:52.204Z,101009.05
2022-08-21T14:53:57.942Z,100998.11
2022-08-21T14:59:06.379Z,100994.19
2022-08-21T15:04:12.269Z,101002.72
2022-08-21T15:09:18.425Z,101005.26
2022-08-21T15:14:26.694Z,101003.59
2022-08-21T15:19:32.526Z,101004.27
2022-08-21T15:24:38.649Z,101003.04
2022-08-21T15:29:44.927Z,101012.13
2022-08-21T15:34:51.182Z,101002.52
2022-08-21T15:39:56.934Z,101009.70
2022-08-21T15:45:03.211Z,101012.95
2022-08-21T15:50:10.872Z,101008.70
2022-08-21T15:55:16.491Z,101017.75
2022-08-21T16:00:25.365Z,101019.29
2022-08-21T16:05:31.707Z,101020.48
2022-08-21T16:10:39.545Z,101026.64
2022-08-21T16:15:45.102Z,101017.91
2022-08-21T16:20:51.177Z,101016.91
2022-08-21T16:25:56.951Z,101021.86
2022-08-21T16:31:04.382Z,101016.39
2022-08-21T16:36:10.733Z,101024.28
2022-08-21T16:41:20.736Z,101018.28
2022-08-21T16:46:26.693Z,101018.42
2022-08-21T16:51:32.258Z,101016.74
2022-08-21T16:56:40.447Z,101018.08
2022-08-21T17:01:46.757Z,101015.34
2022-08-21T17:06:53.339Z,101018.96
2022-08-21T17:11:59.115Z,101020.66
2022-08-21T17:17:06.913Z,101019.30
2022-08-21T17:22:12.997Z,101032.45
2022-08-21T17:27:21.390Z,101031.23
2022-08-21T17:32:28.851Z,101038.25
2022-08-21T17:37:34.419Z,101034.80
2022-08-21T17:42:42.465Z,101034.57
2022-08-21T17:47:48.312Z,101032.17
2022-08-21T17:52:54.439Z,101021.91
2022-08-21T17:58:01.582Z,101025.48
2022-08-21T18:03:11.959Z,101033.81
2022-08-21T18:08:17.759Z,101034.78
2022-08-21T18:13:29.646Z,101040.20
2022-08-21T18:18:40.934Z,101042.53
2022-08-21T18:23:46.613Z,101047.02
2022-08-21T18:28:52.305Z,101051.64
2022-08-21T18:33:59.311Z,101052.19
2022-08-21T18:39:34.307Z,101049.19
2022-08-21T18:44:13.914Z,101054.63
2022-08-21T18:49:19.967Z,101049.50
2022-08-21T18:54:26.569Z,101055.94
2022-08-21T19:04:44.179Z,101059.34
2022-08-21T19:10:01.921Z,101067.16
2022-08-21T19:14:54.059Z,101072.55
2022-08-21T19:20:03.839Z,101064.67
2022-08-21T19:25:10.929Z,101059.17
2022-08-21T19:30:17.443Z,101051.00
2022-08-21T19:35:24.485Z,101040.77
2022-08-21T19:40:30.192Z,101035.80
2022-08-21T19:45:37.593Z,101040.45
2022-08-21T19:50:44.878Z,101037.83
2022-08-21T20:00:57.793Z,101038.42
2022-08-21T20:06:03.511Z,101043.43
2022-08-21T20:11:09.482Z,101049.72
2022-08-21T20:16:17.249Z,101058.83
2022-08-21T20:21:22.864Z,101063.89
2022-08-21T20:26:29.024Z,101065.02
2022-08-21T20:31:34.708Z,101056.56
2022-08-21T20:36:42.020Z,101060.98
2022-08-21T20:41:49.216Z,101057.09
2022-08-21T20:46:54.911Z,101060.02
2022-08-21T20:52:01.260Z,101055.52
2022-08-21T20:57:24.551Z,101053.11
2022-08-21T21:02:38.920Z,101056.49
2022-08-21T21:07:56.574Z,101056.16
2022-08-21T21:13:07.892Z,101050.80
2022-08-21T21:18:16.498Z,101055.27
2022-08-21T21:23:33.950Z,101054.80
2022-08-21T21:28:48.525Z,101055.98
2022-08-21T21:33:56.517Z,101055.77
2022-08-21T21:39:17.046Z,101064.55
2022-08-21T21:44:26.005Z,101057.09
2022-08-21T21:49:40.578Z,101057.36
2022-08-21T21:54:58.226Z,101057.98
2022-08-21T22:00:11.159Z,101061.36
2022-08-21T22:05:49.106Z,101058.80
2022-08-21T22:11:08.862Z,101055.36
2022-08-21T22:16:13.916Z,101047.13
2022-08-21T22:21:24.102Z,101057.81
2022-08-21T22:26:35.409Z,101055.52
2022-08-21T22:31:41.895Z,101064.13
2022-08-21T22:36:51.869Z,101056.75
2022-08-21T22:41:59.165Z,101064.99
2022-08-21T22:47:08.798Z,101066.11
2022-08-21T22:52:24.796Z,101064.27
2022-08-21T22:57:34.907Z,101061.45
2022-08-21T23:02:52.537Z,101066.91
2022-08-21T23:08:23.859Z,101072.00
2022-08-21T23:13:25.290Z,101064.25
2022-08-21T23:18:52.150Z,101062.41
2022-08-21T23:24:34.679Z,101066.02
2022-08-21T23:29:47.040Z,101071.79
2022-08-21T23:35:06.186Z,101073.39
2022-08-21T23:40:30.498Z,101077.81
2022-08-21T23:45:48.767Z,101077.44
2022-08-21T23:50:57.842Z,101074.00
2022-08-21T23:56:11.443Z,101072.80
